createdAt,value
2018-06-11T00:00:23.503Z,100993.83
2018-06-11T00:02:50.363Z,100991.28
2018-06-11T00:05:17.246Z,100989.31
2018-06-11T00:07:44.107Z,100991.34
2018-06-11T00:10:11.004Z,100978.83
2018-06-11T00:12:37.896Z,100979.59
2018-06-11T00:15:04.893Z,100976.11
2018-06-11T00:17:31.769Z,100982.10
2018-06-11T00:19:58.657Z,100973.05
2018-06-11T00:22:25.589Z,100973.91
2018-06-11T00:24:52.441Z,100977.23
2018-06-11T00:27:19.303Z,100984.52
2018-06-11T00:29:46.188Z,100989.37
2018-06-11T00:32:13.059Z,100983.48
2018-06-11T00:34:39.935Z,100990.70
2018-06-11T00:37:06.796Z,100995.31
2018-06-11T00:39:33.675Z,100997.52
2018-06-11T00:42:00.540Z,100996.44
2018-06-11T00:44:27.415Z,100992.66
2018-06-11T00:46:54.292Z,101004.46
2018-06-11T00:49:21.195Z,100999.73
2018-06-11T00:51:48.071Z,101013.17
2018-06-11T00:54:14.948Z,101015.83
2018-06-11T00:56:41.819Z,101019.20
2018-06-11T00:59:08.687Z,101015.77
2018-06-11T01:01:35.555Z,101010.00
2018-06-11T01:04:02.468Z,101008.73
2018-06-11T01:06:29.343Z,101010.61
2018-06-11T01:08:56.216Z,101008.81
2018-06-11T01:11:23.084Z,101000.55
2018-06-11T01:13:49.967Z,101002.67
2018-06-11T01:16:16.835Z,101008.97
2018-06-11T01:18:43.731Z,101019.80
2018-06-11T01:21:10.599Z,101022.34
2018-06-11T01:23:37.482Z,101006.59
2018-06-11T01:26:04.443Z,101007.38
2018-06-11T01:28:31.311Z,101003.39
2018-06-11T01:30:58.192Z,100998.97
2018-06-11T01:33:25.059Z,101012.64
2018-06-11T01:35:51.932Z,101007.95
2018-06-11T01:38:18.791Z,101008.45
2018-06-11T01:40:45.667Z,101001.05
2018-06-11T01:43:12.536Z,101002.07
2018-06-11T01:45:39.413Z,100999.53
2018-06-11T01:48:06.280Z,100990.73
2018-06-11T01:50:33.180Z,100992.23
2018-06-11T01:53:00.068Z,100998.19
2018-06-11T01:55:26.948Z,100991.34
2018-06-11T01:57:53.820Z,100995.09
2018-06-11T02:00:20.697Z,100988.94
2018-06-11T02:02:47.574Z,100985.45
2018-06-11T02:05:14.532Z,100992.63
2018-06-11T02:07:41.384Z,100989.45
2018-06-11T02:10:08.612Z,100982.72
2018-06-11T02:12:35.480Z,100993.58
2018-06-11T02:15:02.396Z,100977.91
2018-06-11T02:17:29.260Z,100981.59
2018-06-11T02:19:56.132Z,100976.64
2018-06-11T02:22:23.004Z,100973.42
2018-06-11T02:24:49.883Z,100981.58
2018-06-11T02:27:16.751Z,100976.75
2018-06-11T02:29:43.647Z,100974.99
2018-06-11T02:32:10.516Z,100974.34
2018-06-11T02:34:37.408Z,100970.87
2018-06-11T02:37:04.274Z,100976.55
2018-06-11T02:39:31.160Z,100974.92
2018-06-11T02:41:58.045Z,100968.05
2018-06-11T02:44:24.924Z,100963.27
2018-06-11T02:46:51.795Z,100961.09
2018-06-11T02:49:18.684Z,100963.50
2018-06-11T02:51:45.569Z,100959.63
2018-06-11T02:54:12.477Z,100952.06
2018-06-11T02:56:39.367Z,100951.45
2018-06-11T02:59:06.243Z,100951.12
2018-06-11T03:01:33.120Z,100953.39
2018-06-11T03:04:00.368Z,100946.59
2018-06-11T03:06:27.237Z,100949.52
2018-06-11T03:08:54.124Z,100952.45
2018-06-11T03:11:21.012Z,100948.70
2018-06-11T03:13:47.884Z,100955.17
2018-06-11T03:16:14.767Z,100951.38
2018-06-11T03:18:41.655Z,100958.36
2018-06-11T03:21:08.528Z,100961.25
2018-06-11T03:23:35.414Z,100956.64
2018-06-11T03:26:02.320Z,100962.03
2018-06-11T03:28:29.192Z,100960.96
2018-06-11T03:30:56.081Z,100969.89
2018-06-11T03:33:22.967Z,100971.23
2018-06-11T03:35:49.845Z,100974.70
2018-06-11T03:38:16.714Z,100967.62
2018-06-11T03:40:43.583Z,100968.30
2018-06-11T03:43:11.261Z,100976.11
2018-06-11T03:45:38.136Z,100991.34
2018-06-11T03:48:04.999Z,100992.58
2018-06-11T03:50:31.868Z,100994.17
2018-06-11T03:52:58.736Z,100997.48
2018-06-11T03:55:25.627Z,100999.50
2018-06-11T03:57:52.504Z,101000.70
2018-06-11T04:00:19.385Z,101001.77
2018-06-11T04:02:46.244Z,101004.76
2018-06-11T04:05:13.120Z,100999.11
2018-06-11T04:07:40.021Z,101000.89
2018-06-11T04:10:06.907Z,101004.23
2018-06-11T04:12:33.769Z,101002.83
2018-06-11T04:15:00.681Z,101012.35
2018-06-11T04:17:27.509Z,101011.54
2018-06-11T04:19:54.389Z,101004.67
2018-06-11T04:22:21.285Z,101009.69
2018-06-11T04:24:48.160Z,101016.87
2018-06-11T04:27:15.021Z,101017.69
2018-06-11T04:29:41.900Z,101016.02
2018-06-11T04:32:08.760Z,101017.98
2018-06-11T04:34:35.637Z,101019.45
2018-06-11T04:37:02.529Z,101013.53
2018-06-11T04:39:29.405Z,101017.94
2018-06-11T04:41:56.288Z,101022.34
2018-06-11T04:44:23.160Z,101022.34
2018-06-11T04:46:50.042Z,101013.94
2018-06-11T04:49:16.928Z,101019.66
2018-06-11T04:51:43.823Z,101017.27
2018-06-11T04:54:10.684Z,101013.05
2018-06-11T04:56:37.539Z,101014.23
2018-06-11T04:59:04.394Z,101013.37
2018-06-11T05:01:31.268Z,101003.39
2018-06-11T05:03:58.137Z,101004.73
2018-06-11T05:06:25.002Z,101006.06
2018-06-11T05:08:51.861Z,101009.67
2018-06-11T05:11:18.725Z,101010.45
2018-06-11T05:13:45.574Z,101005.45
2018-06-11T05:16:12.441Z,101008.05
2018-06-11T05:18:39.315Z,101012.26
2018-06-11T05:21:06.167Z,100997.80
2018-06-11T05:23:33.056Z,101009.52
2018-06-11T05:25:59.926Z,101011.10
2018-06-11T05:28:26.805Z,101015.70
2018-06-11T05:30:53.685Z,101009.81
2018-06-11T05:33:20.533Z,101017.22
2018-06-11T05:35:47.419Z,101022.31
2018-06-11T05:38:14.328Z,101017.25
2018-06-11T05:40:41.222Z,101013.53
2018-06-11T05:43:08.076Z,101014.52
2018-06-11T05:45:34.940Z,101006.74
2018-06-11T05:48:01.844Z,101004.61
2018-06-11T05:50:28.691Z,101005.05
2018-06-11T05:52:55.561Z,101005.12
2018-06-11T05:55:22.427Z,101013.64
2018-06-11T05:57:49.276Z,101008.20
2018-06-11T06:00:16.140Z,101008.16
2018-06-11T06:02:43.001Z,101008.52
2018-06-11T06:05:09.852Z,101015.27
2018-06-11T06:07:36.708Z,101015.47
2018-06-11T06:10:03.613Z,101024.28
2018-06-11T06:12:30.477Z,101017.30
2018-06-11T06:14:57.331Z,101017.91
2018-06-11T06:17:24.195Z,101024.47
2018-06-11T06:19:51.050Z,101026.09
2018-06-11T06:22:17.921Z,101023.87
2018-06-11T06:24:44.784Z,101026.85
2018-06-11T06:27:11.643Z,101027.02
2018-06-11T06:29:38.508Z,101023.36
2018-06-11T06:32:05.376Z,101027.06
2018-06-11T06:34:32.291Z,101024.42
2018-06-11T06:36:59.117Z,101026.72
2018-06-11T06:39:25.978Z,101022.94
2018-06-11T06:41:52.852Z,101028.57
2018-06-11T06:44:19.727Z,101032.98
2018-06-11T06:46:46.583Z,101033.45
2018-06-11T06:49:13.457Z,101030.70
2018-06-11T06:51:40.329Z,101045.28
2018-06-11T06:54:07.191Z,101040.96
2018-06-11T06:56:34.073Z,101035.36
2018-06-11T06:59:00.967Z,101038.22
2018-06-11T07:01:27.853Z,101030.78
2018-06-11T07:03:54.725Z,101026.32
2018-06-11T07:06:21.597Z,101027.70
2018-06-11T07:08:48.452Z,101024.09
2018-06-11T07:11:15.327Z,101026.02
2018-06-11T07:13:42.212Z,101023.77
2018-06-11T07:16:09.083Z,101031.83
2018-06-11T07:18:35.953Z,101021.52
2018-06-11T07:21:02.824Z,101026.10
2018-06-11T07:23:29.711Z,101036.16
2018-06-11T07:25:56.574Z,101026.87
2018-06-11T07:28:23.448Z,101027.03
2018-06-11T07:30:50.312Z,101032.68
2018-06-11T07:33:17.171Z,101033.98
2018-06-11T07:35:44.048Z,101030.67
2018-06-11T07:38:10.901Z,101037.49
2018-06-11T07:40:37.766Z,101027.53
2018-06-11T07:43:04.640Z,101031.97
2018-06-11T07:45:31.513Z,101036.66
2018-06-11T07:47:58.430Z,101035.81
2018-06-11T07:50:25.276Z,101036.16
2018-06-11T07:52:52.141Z,101037.83
2018-06-11T07:55:19.020Z,101032.19
2018-06-11T07:57:45.888Z,101033.42
2018-06-11T08:00:12.763Z,101034.30
2018-06-11T08:02:39.664Z,101032.43
2018-06-11T08:05:06.557Z,101033.89
2018-06-11T08:07:33.495Z,101030.58
2018-06-11T08:10:00.296Z,101031.72
2018-06-11T08:12:27.173Z,101022.18
2018-06-11T08:14:54.034Z,101021.22
2018-06-11T08:17:20.945Z,101031.03
2018-06-11T08:19:47.829Z,101030.78
2018-06-11T08:22:14.704Z,101035.44
2018-06-11T08:24:41.593Z,101036.55
2018-06-11T08:27:08.492Z,101035.11
2018-06-11T08:29:35.390Z,101036.57
2018-06-11T08:32:02.281Z,101043.06
2018-06-11T08:34:29.157Z,101039.17
2018-06-11T08:36:56.044Z,101035.91
2018-06-11T08:39:22.905Z,101038.87
2018-06-11T08:41:49.769Z,101037.56
2018-06-11T08:44:16.636Z,101028.45
2018-06-11T08:46:43.520Z,101033.04
2018-06-11T08:49:10.448Z,101033.64
2018-06-11T08:51:37.320Z,101031.50
2018-06-11T08:54:04.337Z,101034.53
2018-06-11T08:56:31.212Z,101040.98
2018-06-11T08:58:58.089Z,101036.66
2018-06-11T09:01:24.966Z,101034.20
2018-06-11T09:03:51.834Z,101034.13
2018-06-11T09:06:18.688Z,101031.52
2018-06-11T09:08:45.561Z,101026.09
2018-06-11T09:11:12.437Z,101025.59
2018-06-11T09:13:39.320Z,101027.21
2018-06-11T09:16:06.177Z,101029.09
2018-06-11T09:18:33.063Z,101036.38
2018-06-11T09:20:59.952Z,101032.94
2018-06-11T09:23:26.828Z,101022.17
2018-06-11T09:25:53.689Z,101030.42
2018-06-11T09:28:20.557Z,101034.52
2018-06-11T09:30:47.419Z,101031.25
2018-06-11T09:33:14.924Z,101044.95
2018-06-11T09:35:41.800Z,101038.83
2018-06-11T09:38:08.685Z,101035.58
2018-06-11T09:40:35.552Z,101020.72
2018-06-11T09:43:02.457Z,101025.08
2018-06-11T09:45:29.321Z,101022.95
2018-06-11T09:47:56.201Z,101022.82
2018-06-11T09:50:23.072Z,101031.43
2018-06-11T09:52:49.945Z,101036.19
2018-06-11T09:55:16.820Z,101028.14
2018-06-11T09:57:43.692Z,101037.59
2018-06-11T10:00:16.408Z,101041.61
2018-06-11T10:02:43.288Z,101034.63
2018-06-11T10:05:10.161Z,101040.06
2018-06-11T10:07:37.024Z,101039.59
2018-06-11T10:10:03.888Z,101039.47
2018-06-11T10:12:30.818Z,101047.62
2018-06-11T10:14:57.644Z,101037.47
2018-06-11T10:17:24.525Z,101036.33
2018-06-11T10:19:51.380Z,101030.28
2018-06-11T10:22:18.252Z,101031.93
2018-06-11T10:24:45.134Z,101027.42
2018-06-11T10:27:12.010Z,101026.29
2018-06-11T10:29:38.880Z,101035.88
2018-06-11T10:32:05.736Z,101027.38
2018-06-11T10:34:32.604Z,101035.06
2018-06-11T10:36:59.492Z,101027.80
2018-06-11T10:39:26.365Z,101032.92
2018-06-11T10:41:53.236Z,101027.93
2018-06-11T10:44:20.108Z,101036.31
2018-06-11T10:46:46.964Z,101041.96
2018-06-11T10:49:13.829Z,101035.82
2018-06-11T10:51:40.697Z,101037.42
2018-06-11T10:54:07.568Z,101032.30
2018-06-11T10:56:34.442Z,101029.70
2018-06-11T10:59:01.321Z,101037.11
2018-06-11T11:01:28.193Z,101038.12
2018-06-11T11:03:55.070Z,101051.05
2018-06-11T11:06:21.933Z,101033.33
2018-06-11T11:08:48.827Z,101035.61
2018-06-11T11:11:15.665Z,101041.16
2018-06-11T11:13:42.531Z,101039.80
2018-06-11T11:16:09.388Z,101047.44
2018-06-11T11:18:36.265Z,101042.19
2018-06-11T11:21:03.149Z,101047.05
2018-06-11T11:23:30.024Z,101053.20
2018-06-11T11:25:56.905Z,101060.69
2018-06-11T11:28:23.764Z,101055.33
2018-06-11T11:30:50.620Z,101048.39
2018-06-11T11:33:17.480Z,101046.25
2018-06-11T11:35:44.324Z,101037.88
2018-06-11T11:38:11.196Z,101039.79
2018-06-11T11:40:38.056Z,101049.21
2018-06-11T11:43:04.947Z,101047.12
2018-06-11T11:45:31.795Z,101046.42
2018-06-11T11:47:58.654Z,101048.30
2018-06-11T11:50:25.532Z,101043.53
2018-06-11T11:52:52.400Z,101044.64
2018-06-11T11:55:19.271Z,101039.52
2018-06-11T11:57:46.130Z,101034.89
2018-06-11T12:00:13.024Z,101035.05
2018-06-11T12:02:39.875Z,101041.13
2018-06-11T12:05:06.754Z,101031.70
2018-06-11T12:07:33.669Z,101038.02
2018-06-11T12:10:00.504Z,101037.54
2018-06-11T12:12:27.390Z,101031.30
2018-06-11T12:14:54.247Z,101037.24
2018-06-11T12:17:21.111Z,101032.89
2018-06-11T12:19:48.013Z,101030.17
2018-06-11T12:22:14.889Z,101020.67
2018-06-11T12:24:41.753Z,101026.23
2018-06-11T12:27:08.619Z,101021.78
2018-06-11T12:29:35.516Z,101019.20
2018-06-11T12:32:02.400Z,101032.61
2018-06-11T12:34:29.272Z,101029.55
2018-06-11T12:36:56.136Z,101025.27
2018-06-11T12:39:23.010Z,101016.55
2018-06-11T12:41:49.863Z,101016.29
2018-06-11T12:44:16.734Z,101021.80
2018-06-11T12:46:43.590Z,101019.41
2018-06-11T12:49:10.455Z,101019.52
2018-06-11T12:51:37.310Z,101030.39
2018-06-11T12:54:04.176Z,101023.75
2018-06-11T12:56:31.038Z,101010.95
2018-06-11T12:58:57.917Z,101002.08
2018-06-11T13:01:24.791Z,101007.83
2018-06-11T13:03:51.648Z,101003.83
2018-06-11T13:06:18.512Z,100997.41
2018-06-11T13:08:45.369Z,100998.88
2018-06-11T13:11:12.233Z,100991.40
2018-06-11T13:13:39.091Z,101001.05
2018-06-11T13:16:05.957Z,100999.02
2018-06-11T13:18:32.811Z,100997.23
2018-06-11T13:20:59.659Z,100994.38
2018-06-11T13:23:26.533Z,100991.82
2018-06-11T13:25:53.393Z,100995.70
2018-06-11T13:28:20.260Z,100999.29
2018-06-11T13:30:47.145Z,100993.54
2018-06-11T13:33:14.007Z,100994.05
2018-06-11T13:35:40.890Z,100989.45
2018-06-11T13:38:07.757Z,100988.50
2018-06-11T13:40:34.653Z,100987.55
2018-06-11T13:43:01.609Z,100987.31
2018-06-11T13:45:28.485Z,100979.26
2018-06-11T13:47:55.356Z,100975.72
2018-06-11T13:50:22.243Z,100973.05
2018-06-11T13:52:49.121Z,100980.56
2018-06-11T13:55:15.998Z,100976.17
2018-06-11T13:57:42.865Z,100970.23
2018-06-11T14:00:09.778Z,100967.04
2018-06-11T14:02:36.637Z,100966.25
2018-06-11T14:05:03.614Z,100957.22
2018-06-11T14:07:30.470Z,100964.17
2018-06-11T14:09:57.341Z,100955.66
2018-06-11T14:12:24.213Z,100958.06
2018-06-11T14:14:51.097Z,100962.83
2018-06-11T14:17:17.957Z,100956.94
2018-06-11T14:19:44.809Z,100948.36
2018-06-11T14:22:11.684Z,100948.87
2018-06-11T14:24:38.547Z,100943.52
2018-06-11T14:27:05.405Z,100943.53
2018-06-11T14:29:32.257Z,100949.88
2018-06-11T14:31:59.130Z,100948.14
2018-06-11T14:34:25.994Z,100950.25
2018-06-11T14:36:52.873Z,100948.77
2018-06-11T14:39:19.722Z,100944.23
2018-06-11T14:41:46.592Z,100942.50
2018-06-11T14:44:13.461Z,100939.36
2018-06-11T14:46:40.340Z,100930.31
2018-06-11T14:49:07.212Z,100918.61
2018-06-11T14:51:34.082Z,100914.22
2018-06-11T14:54:00.957Z,100914.98
2018-06-11T14:56:27.837Z,100912.80
2018-06-11T14:58:54.695Z,100912.46
2018-06-11T15:01:21.583Z,100924.00
2018-06-11T15:03:48.532Z,100921.52
2018-06-11T15:06:15.337Z,100909.26
2018-06-11T15:08:42.196Z,100926.23
2018-06-11T15:11:09.093Z,100923.33
2018-06-11T15:13:35.960Z,100913.00
2018-06-11T15:16:02.848Z,100922.69
2018-06-11T15:18:29.721Z,100909.53
2018-06-11T15:20:56.596Z,100904.45
2018-06-11T15:23:23.474Z,100909.84
2018-06-11T15:25:50.342Z,100899.30
2018-06-11T15:28:17.212Z,100903.31
2018-06-11T15:30:44.093Z,100895.75
2018-06-11T15:33:10.958Z,100886.86
2018-06-11T15:35:37.828Z,100881.06
2018-06-11T15:38:04.699Z,100889.80
2018-06-11T15:40:31.575Z,100900.81
2018-06-11T15:42:58.429Z,100893.25
2018-06-11T15:45:25.316Z,100901.77
2018-06-11T15:47:52.181Z,100893.47
2018-06-11T15:50:19.041Z,100891.95
2018-06-11T15:52:45.909Z,100900.05
2018-06-11T15:55:12.766Z,100901.83
2018-06-11T15:57:39.653Z,100894.34
2018-06-11T16:00:06.529Z,100903.18
2018-06-11T16:02:33.401Z,100897.42
2018-06-11T16:05:00.264Z,100893.33
2018-06-11T16:07:27.131Z,100897.86
2018-06-11T16:09:54.001Z,100894.69
2018-06-11T16:12:20.877Z,100901.20
2018-06-11T16:14:47.749Z,100899.42
2018-06-11T16:17:14.611Z,100901.53
2018-06-11T16:19:41.496Z,100899.63
2018-06-11T16:22:08.407Z,100893.47
2018-06-11T16:24:35.289Z,100893.92
2018-06-11T16:27:02.161Z,100905.91
2018-06-11T16:29:29.020Z,100899.80
2018-06-11T16:31:55.938Z,100905.70
2018-06-11T16:34:22.793Z,100912.48
2018-06-11T16:36:49.680Z,100915.36
2018-06-11T16:39:16.545Z,100913.98
2018-06-11T16:41:43.452Z,100907.72
2018-06-11T16:44:10.458Z,100910.08
2018-06-11T16:46:37.341Z,100909.62
2018-06-11T16:49:04.349Z,100908.92
2018-06-11T16:51:31.228Z,100908.98
2018-06-11T16:53:58.104Z,100908.66
2018-06-11T16:56:24.964Z,100898.70
2018-06-11T16:58:51.845Z,100906.30
2018-06-11T17:01:18.708Z,100900.18
2018-06-11T17:03:45.582Z,100899.83
2018-06-11T17:06:12.445Z,100878.61
2018-06-11T17:08:39.321Z,100882.13
2018-06-11T17:11:06.198Z,100875.78
2018-06-11T17:13:33.073Z,100888.06
2018-06-11T17:15:59.942Z,100888.51
2018-06-11T17:18:26.815Z,100886.18
2018-06-11T17:20:53.703Z,100884.41
2018-06-11T17:23:20.586Z,100886.19
2018-06-11T17:25:47.444Z,100891.28
2018-06-11T17:28:14.312Z,100887.14
2018-06-11T17:30:41.176Z,100895.28
2018-06-11T17:33:08.040Z,100901.73
2018-06-11T17:35:34.894Z,100886.12
2018-06-11T17:38:01.765Z,100894.66
2018-06-11T17:40:28.620Z,100893.45
2018-06-11T17:42:55.476Z,100889.27
2018-06-11T17:45:22.334Z,100887.72
2018-06-11T17:47:49.213Z,100888.27
2018-06-11T17:50:16.073Z,100891.15
2018-06-11T17:52:42.952Z,100880.16
2018-06-11T17:55:09.856Z,100884.47
2018-06-11T17:57:37.712Z,100884.17
2018-06-11T18:00:04.866Z,100888.78
2018-06-11T18:02:31.736Z,100884.93
2018-06-11T18:04:58.621Z,100868.51
2018-06-11T18:07:25.482Z,100881.66
2018-06-11T18:09:52.341Z,100882.20
2018-06-11T18:12:19.205Z,100886.59
2018-06-11T18:14:46.068Z,100892.95
2018-06-11T18:17:12.926Z,100896.03
2018-06-11T18:19:39.792Z,100896.41
2018-06-11T18:22:06.649Z,100889.64
2018-06-11T18:24:33.522Z,100888.45
2018-06-11T18:27:00.375Z,100887.28
2018-06-11T18:29:27.241Z,100884.08
2018-06-11T18:31:54.135Z,100884.65
2018-06-11T18:34:23.115Z,100882.59
2018-06-11T18:36:52.243Z,100867.91
2018-06-11T18:39:19.136Z,100874.20
2018-06-11T18:41:45.984Z,100868.55
2018-06-11T18:44:12.852Z,100862.18
2018-06-11T18:46:39.723Z,100856.58
2018-06-11T18:49:06.617Z,100858.06
2018-06-11T18:51:33.492Z,100856.72
2018-06-11T18:54:00.352Z,100856.72
2018-06-11T18:56:27.252Z,100857.60
2018-06-11T18:58:54.127Z,100853.55
2018-06-11T19:01:20.985Z,100847.76
2018-06-11T19:03:47.869Z,100850.01
2018-06-11T19:06:14.737Z,100850.44
2018-06-11T19:08:41.609Z,100840.81
2018-06-11T19:11:08.485Z,100839.33
2018-06-11T19:13:36.056Z,100838.15
2018-06-11T19:16:02.968Z,100843.84
2018-06-11T19:18:30.354Z,100836.58
2018-06-11T19:20:57.220Z,100834.20
2018-06-11T19:23:24.116Z,100831.32
2018-06-11T19:25:50.993Z,100813.18
2018-06-11T19:28:17.978Z,100823.41
2018-06-11T19:30:44.856Z,100831.48
2018-06-11T19:33:11.767Z,100823.76
2018-06-11T19:35:38.648Z,100835.61
2018-06-11T19:38:05.524Z,100828.92
2018-06-11T19:40:32.413Z,100837.52
2018-06-11T19:42:59.300Z,100836.58
2018-06-11T19:45:26.205Z,100844.29
2018-06-11T19:47:53.076Z,100848.72
2018-06-11T19:50:19.955Z,100851.59
2018-06-11T19:52:46.837Z,100845.33
2018-06-11T19:55:13.778Z,100853.00
2018-06-11T19:57:40.664Z,100852.09
2018-06-11T20:00:07.549Z,100858.02
2018-06-11T20:02:34.412Z,100852.45
2018-06-11T20:05:01.299Z,100850.63
2018-06-11T20:07:28.172Z,100848.83
2018-06-11T20:09:55.049Z,100854.34
2018-06-11T20:12:21.922Z,100853.68
2018-06-11T20:14:48.804Z,100855.44
2018-06-11T20:17:15.672Z,100848.38
2018-06-11T20:19:42.536Z,100863.29
2018-06-11T20:22:10.184Z,100866.62
2018-06-11T20:24:37.072Z,100861.95
2018-06-11T20:27:04.015Z,100860.09
2018-06-11T20:29:30.901Z,100861.13
2018-06-11T20:31:57.781Z,100854.81
2018-06-11T20:34:24.654Z,100862.92
2018-06-11T20:36:51.527Z,100869.58
2018-06-11T20:39:18.417Z,100879.45
2018-06-11T20:41:45.297Z,100888.09
2018-06-11T20:44:12.192Z,100891.98
2018-06-11T20:46:39.068Z,100887.30
2018-06-11T20:49:05.944Z,100892.89
2018-06-11T20:51:32.824Z,100896.68
2018-06-11T20:53:59.717Z,100887.96
2018-06-11T20:56:26.631Z,100882.31
2018-06-11T20:58:53.522Z,100880.19
2018-06-11T21:01:20.409Z,100878.72
2018-06-11T21:03:47.294Z,100889.30
2018-06-11T21:06:14.202Z,100886.77
2018-06-11T21:08:41.104Z,100889.58
2018-06-11T21:11:07.980Z,100895.17
2018-06-11T21:13:34.856Z,100898.30
2018-06-11T21:16:01.759Z,100903.44
2018-06-11T21:18:28.646Z,100906.16
2018-06-11T21:20:55.532Z,100911.55
2018-06-11T21:23:22.427Z,100908.47
2018-06-11T21:25:49.325Z,100898.89
2018-06-11T21:28:16.212Z,100902.75
2018-06-11T21:30:43.087Z,100905.94
2018-06-11T21:33:09.970Z,100915.81
2018-06-11T21:35:36.854Z,100916.00
2018-06-11T21:38:04.230Z,100911.52
2018-06-11T21:40:31.109Z,100904.80
2018-06-11T21:42:57.988Z,100895.84
2018-06-11T21:45:24.916Z,100902.63
2018-06-11T21:47:51.783Z,100893.56
2018-06-11T21:50:18.668Z,100896.42
2018-06-11T21:52:45.542Z,100895.97
2018-06-11T21:55:12.416Z,100892.56
2018-06-11T21:57:39.305Z,100879.95
2018-06-11T22:00:06.552Z,100882.23
2018-06-11T22:02:33.437Z,100873.17
2018-06-11T22:05:00.365Z,100864.73
2018-06-11T22:07:27.248Z,100858.27
2018-06-11T22:09:54.132Z,100861.06
2018-06-11T22:12:21.088Z,100851.41
2018-06-11T22:14:48.008Z,100845.16
2018-06-11T22:17:14.881Z,100850.67
2018-06-11T22:19:41.768Z,100843.75
2018-06-11T22:22:08.671Z,100840.02
2018-06-11T22:24:35.560Z,100836.81
2018-06-11T22:27:02.458Z,100845.21
2018-06-11T22:29:29.348Z,100846.13
2018-06-11T22:31:56.233Z,100837.88
2018-06-11T22:34:23.106Z,100838.27
2018-06-11T22:39:23.624Z,100836.16
2018-06-11T22:41:50.511Z,100845.60
2018-06-11T22:44:17.407Z,100848.66
2018-06-11T22:46:44.301Z,100855.31
2018-06-11T22:49:11.189Z,100858.23
2018-06-11T22:51:38.491Z,100856.77
2018-06-11T22:54:05.385Z,100855.58
2018-06-11T22:56:32.272Z,100852.20
2018-06-11T22:58:59.154Z,100855.58
2018-06-11T23:01:26.026Z,100837.33
2018-06-11T23:03:52.908Z,100841.68
2018-06-11T23:06:19.798Z,100847.06
2018-06-11T23:08:46.697Z,100846.13
2018-06-11T23:11:13.593Z,100853.69
2018-06-11T23:13:40.461Z,100852.91
2018-06-11T23:16:07.352Z,100849.30
2018-06-11T23:18:34.236Z,100854.89
2018-06-11T23:21:01.129Z,100843.14
2018-06-11T23:23:28.034Z,100844.53
2018-06-11T23:25:54.920Z,100841.31
2018-06-11T23:28:21.803Z,100835.67
2018-06-11T23:30:48.720Z,100833.63
2018-06-11T23:33:15.604Z,100831.13
2018-06-11T23:35:42.473Z,100831.30
2018-06-11T23:38:09.346Z,100834.80
2018-06-11T23:40:36.273Z,100839.79
2018-06-11T23:43:03.156Z,100831.13
2018-06-11T23:45:30.036Z,100826.30
2018-06-11T23:47:56.912Z,100825.48
2018-06-11T23:50:23.796Z,100828.59
2018-06-11T23:52:50.655Z,100831.68
2018-06-11T23:55:17.539Z,100822.95
2018-06-11T23:57:44.414Z,100818.23
